Terminal Aerodrome Forecast
Issued by NWS

Home | Current Version | Previous Version | Text Only | Print | Product List | Glossary On
Versions: 1 2 3 4 5 6 7 8 9 10 11 12 13 14 15 16 17 18 19 20 21 22 23 24 25 26 27 28 29 30
000
FTUS41 KAKQ 041100
TAFPHF
TAF
KPHF 041138Z 0412/0512 24014G20KT 2SM BR OVC003
     FM041700 24014G22KT P6SM BKN020
     FM050200 35012KT 4SM -RA OVC007=

USA.gov is the U.S. government's official web portal to all federal, state and local government web resources and services.